Time;durP1;ratioP1;P1;durP2;ratioP2;P2;SDS_P1;SDS_P2;PMS_P1;PMS_P2;Temp;Humidity;BMP_temperature;BMP_pressure;BME280_temperature;BME280_humidity;BME280_pressure;Samples;Min_cycle;Max_cycle;Signal;HPM_P1;HPM_P2
2022/09/08 01:49:43;;;;;;;23.20;4.60;;;;;;;24.82;100.00;94231.88;6009552;22;20081;-91
2022/09/08 01:52:08;;;;;;;17.90;4.38;;;;;;;24.60;100.00;94215.47;5060720;28;20020;-91
2022/09/08 01:54:34;;;;;;;24.35;4.45;;;;;;;24.68;100.00;94211.00;5076855;28;20490;-91
2022/09/08 01:57:00;;;;;;;21.20;4.75;;;;;;;24.50;100.00;94216.88;5060657;28;20024;-91
2022/09/08 01:59:26;;;;;;;12.65;4.10;;;;;;;24.86;100.00;94211.25;5060670;28;20451;-91
2022/09/08 02:01:51;;;;;;;15.77;4.35;;;;;;;24.94;100.00;94220.91;5060567;28;20024;-90
2022/09/08 02:04:17;;;;;;;17.48;4.43;;;;;;;24.34;100.00;94233.06;5060442;28;20085;-90
2022/09/08 02:06:43;;;;;;;19.80;4.10;;;;;;;24.55;100.00;94210.44;5057427;28;20314;-89
2022/09/08 02:09:08;;;;;;;16.98;4.65;;;;;;;24.81;100.00;94208.88;5057335;28;20047;-91
2022/09/08 02:11:33;;;;;;;24.60;5.13;;;;;;;24.43;100.00;94222.88;5056955;28;20033;-90
2022/09/08 02:13:59;;;;;;;14.73;4.00;;;;;;;25.17;100.00;94220.06;5040049;28;20021;-90
2022/09/08 02:16:25;;;;;;;25.55;5.00;;;;;;;25.46;100.00;94209.66;5058187;28;20031;-91
2022/09/08 02:18:53;;;;;;;21.20;4.53;;;;;;;25.30;100.00;94209.09;5060260;28;20025;-90
2022/09/08 02:21:19;;;;;;;14.38;4.00;;;;;;;25.88;100.00;94215.09;5060271;28;20028;-90
2022/09/08 02:23:46;;;;;;;21.38;4.38;;;;;;;25.81;100.00;94216.56;5076493;28;20031;-91
2022/09/08 02:26:19;;;;;;;15.60;4.55;;;;;;;25.83;100.00;94219.66;5059551;28;20070;-91
2022/09/08 02:28:45;;;;;;;19.35;4.72;;;;;;;25.88;100.00;94217.78;5058814;28;20119;-91
2022/09/08 02:31:11;;;;;;;18.35;4.43;;;;;;;25.76;100.00;94206.16;5060406;28;20130;-92
2022/09/08 02:33:36;;;;;;;15.98;4.25;;;;;;;25.52;100.00;94194.06;5060059;28;20356;-91
2022/09/08 02:36:03;;;;;;;15.30;3.92;;;;;;;25.84;100.00;94188.22;5060267;28;20024;-89
2022/09/08 02:38:29;;;;;;;15.40;4.43;;;;;;;25.88;100.00;94183.66;5076789;28;20434;-91
2022/09/08 02:40:55;;;;;;;25.25;4.43;;;;;;;25.71;100.00;94181.56;5059886;28;20029;-91
2022/09/08 02:43:22;;;;;;;14.10;3.88;;;;;;;25.87;100.00;94190.16;5076229;28;20044;-91
2022/09/08 02:45:48;;;;;;;19.48;3.95;;;;;;;25.69;100.00;94190.00;5059904;28;20184;-90
2022/09/08 02:48:14;;;;;;;19.13;4.05;;;;;;;25.67;100.00;94184.22;5059681;28;20064;-90
2022/09/08 02:50:42;;;;;;;15.18;4.50;;;;;;;25.71;100.00;94187.72;5059552;28;20036;-90
2022/09/08 02:53:09;;;;;;;15.93;4.68;;;;;;;24.62;100.00;94188.34;5059162;28;20028;-90
2022/09/08 02:55:41;;;;;;;15.52;5.18;;;;;;;24.46;100.00;94181.25;5059673;28;20036;-89
2022/09/08 02:58:08;;;;;;;18.95;5.18;;;;;;;23.82;100.00;94179.84;5075961;28;20036;-89
2022/09/08 03:00:35;;;;;;;24.17;5.20;;;;;;;24.20;100.00;94182.78;5059796;28;20115;-90
2022/09/08 03:03:01;;;;;;;13.52;4.82;;;;;;;24.60;100.00;94177.97;5059098;28;20032;-90
2022/09/08 03:05:27;;;;;;;20.27;4.68;;;;;;;24.18;100.00;94168.19;5059701;28;20032;-88
2022/09/08 03:07:53;;;;;;;16.90;3.58;;;;;;;24.65;100.00;94152.78;5076161;28;20076;-90
2022/09/08 03:10:23;;;;;;;14.65;4.32;;;;;;;24.61;100.00;94149.31;5059331;28;20417;-89
2022/09/08 03:12:53;;;;;;;13.60;2.47;;;;;;;25.05;100.00;94135.31;5075830;28;20341;-89
2022/09/08 03:15:21;;;;;;;6.85;2.60;;;;;;;25.12;100.00;94142.66;5076020;28;20126;-89
2022/09/08 03:17:46;;;;;;;9.05;2.92;;;;;;;25.20;100.00;94135.47;5076260;28;20187;-90
2022/09/08 03:20:12;;;;;;;16.20;2.97;;;;;;;24.65;100.00;94134.03;5076012;28;20140;-90
2022/09/08 03:22:37;;;;;;;18.90;4.25;;;;;;;24.80;100.00;94137.69;5058619;28;20025;-91
2022/09/08 03:25:04;;;;;;;11.85;3.42;;;;;;;24.60;100.00;94137.03;5075611;28;20025;-90
2022/09/08 03:27:29;;;;;;;8.07;2.70;;;;;;;24.78;100.00;94150.69;5059145;28;20024;-91
2022/09/08 03:29:55;;;;;;;13.65;3.20;;;;;;;24.52;100.00;94144.19;5059015;28;20036;-89
2022/09/08 03:32:20;;;;;;;10.13;3.05;;;;;;;24.84;100.00;94138.53;5059229;28;20448;-89
2022/09/08 03:34:46;;;;;;;16.67;3.90;;;;;;;24.79;100.00;94133.47;5059146;28;20123;-89
2022/09/08 03:37:13;;;;;;;17.80;3.33;;;;;;;24.16;100.00;94125.72;5075807;28;20028;-88
2022/09/08 03:39:38;;;;;;;10.65;2.25;;;;;;;24.11;100.00;94120.69;5075642;28;20353;-89
2022/09/08 03:42:04;;;;;;;11.40;2.28;;;;;;;24.66;100.00;94122.94;5076805;28;20020;-88
2022/09/08 03:44:30;;;;;;;9.48;2.20;;;;;;;24.91;100.00;94122.53;5076595;28;20340;-88
2022/09/08 03:46:56;;;;;;;10.93;2.67;;;;;;;24.65;100.00;94121.41;5075941;28;20035;-89
2022/09/08 03:49:21;;;;;;;9.68;3.08;;;;;;;24.71;100.00;94141.41;5075710;28;20031;-90
2022/09/08 03:51:46;;;;;;;10.75;2.50;;;;;;;23.94;100.00;94136.09;5058897;28;20101;-90
2022/09/08 03:56:56;;;;;;;18.08;2.75;;;;;;;25.01;100.00;94123.00;5075842;28;20177;-89
2022/09/08 03:59:21;;;;;;;7.50;2.25;;;;;;;24.87;100.00;94159.22;5076743;28;20448;-90
2022/09/08 04:01:47;;;;;;;10.00;2.00;;;;;;;24.47;100.00;94163.25;5075296;28;20028;-89
2022/09/08 04:04:12;;;;;;;6.43;2.20;;;;;;;24.60;100.00;94167.28;5076398;28;20033;-90
2022/09/08 04:06:38;;;;;;;3.53;1.90;;;;;;;24.55;99.19;94149.59;5058784;28;20044;-90
2022/09/08 04:09:03;;;;;;;5.95;1.45;;;;;;;24.66;92.46;94148.97;5075269;28;20031;-89
2022/09/08 04:11:29;;;;;;;3.50;1.10;;;;;;;24.64;90.95;94159.28;5075493;28;20040;-90
2022/09/08 04:13:55;;;;;;;3.40;0.82;;;;;;;24.92;82.10;94145.50;5074857;28;20029;-90
2022/09/08 04:16:21;;;;;;;5.60;1.20;;;;;;;25.10;84.51;94145.72;5058701;28;20078;-88
2022/09/08 04:18:46;;;;;;;4.97;1.20;;;;;;;25.08;82.28;94133.81;5058941;28;20071;-90
2022/09/08 04:21:12;;;;;;;3.33;1.02;;;;;;;25.41;81.39;94159.06;5058828;28;20040;-90
2022/09/08 04:23:38;;;;;;;9.15;1.10;;;;;;;24.96;80.84;94138.28;5058262;28;20033;-89
2022/09/08 04:26:10;;;;;;;2.63;1.10;;;;;;;24.93;82.77;94135.56;5075290;28;20078;-90
2022/09/08 04:28:36;;;;;;;2.28;0.98;;;;;;;25.46;78.55;94142.63;5058847;28;20048;-89
2022/09/08 04:31:06;;;;;;;2.97;0.80;;;;;;;24.56;74.56;94145.78;5058795;28;20028;-89
2022/09/08 04:33:32;;;;;;;6.28;0.95;;;;;;;24.78;74.01;94151.47;5058380;28;20418;-90
2022/09/08 04:35:57;;;;;;;5.07;0.70;;;;;;;24.93;68.84;94167.72;5074879;28;20082;-89
2022/09/08 04:38:23;;;;;;;4.10;1.00;;;;;;;24.52;69.22;94158.38;5076387;28;20032;-90
2022/09/08 04:40:48;;;;;;;7.47;1.33;;;;;;;25.43;64.42;94164.81;5074909;28;20039;-90
2022/09/08 04:43:14;;;;;;;2.97;1.10;;;;;;;25.59;64.46;94153.88;5075517;28;20114;-90
2022/09/08 04:45:39;;;;;;;4.00;0.75;;;;;;;25.60;66.24;94150.06;5074815;28;20028;-90
2022/09/08 04:48:05;;;;;;;4.25;0.93;;;;;;;25.34;68.37;94145.56;5074819;28;20039;-89
2022/09/08 04:50:30;;;;;;;6.53;0.82;;;;;;;25.41;66.25;94143.72;5076807;28;20048;-90
2022/09/08 04:52:56;;;;;;;2.45;0.80;;;;;;;25.07;67.03;94145.66;5078009;28;20025;-91
2022/09/08 04:55:21;;;;;;;7.00;1.60;;;;;;;25.19;68.30;94150.03;5078421;28;20032;-91
2022/09/08 04:57:47;;;;;;;2.03;0.80;;;;;;;25.22;66.83;94136.63;5078175;28;20147;-90
2022/09/08 05:00:13;;;;;;;8.93;1.13;;;;;;;24.71;68.74;94130.69;5079477;28;20165;-90
2022/09/08 05:02:38;;;;;;;4.55;1.00;;;;;;;24.67;66.62;94137.88;5079339;28;20044;-91
2022/09/08 05:05:04;;;;;;;2.85;1.05;;;;;;;25.01;64.41;94121.09;5078454;28;20033;-90
2022/09/08 05:07:30;;;;;;;4.70;1.20;;;;;;;24.88;63.19;94111.75;5078217;28;20445;-90
2022/09/08 05:09:55;;;;;;;5.90;1.00;;;;;;;25.70;60.54;94116.44;5062272;28;20130;-88
2022/09/08 05:12:20;;;;;;;4.88;1.08;;;;;;;25.20;61.00;94122.06;5077924;28;20099;-88
2022/09/08 05:14:46;;;;;;;7.90;1.27;;;;;;;25.13;62.02;94117.41;5078193;28;20033;-89
2022/09/08 05:17:11;;;;;;;5.15;1.45;;;;;;;25.21;61.44;94120.94;5078783;28;20031;-85
2022/09/08 05:19:37;;;;;;;7.30;1.25;;;;;;;25.32;61.85;94121.03;5077189;28;20028;-86
2022/09/08 05:22:02;;;;;;;7.82;1.25;;;;;;;25.26;60.04;94116.00;5071622;28;20048;-86
2022/09/08 05:24:28;;;;;;;9.43;1.77;;;;;;;25.24;59.77;94126.31;5040992;28;20346;-87
2022/09/08 05:26:53;;;;;;;8.38;1.33;;;;;;;25.49;59.50;94139.22;5059068;28;20020;-86
2022/09/08 05:29:19;;;;;;;9.18;1.70;;;;;;;25.27;60.21;94140.91;5058843;28;20029;-85
2022/09/08 05:31:44;;;;;;;8.57;1.63;;;;;;;25.22;61.27;94133.94;5058758;28;20024;-85
2022/09/08 05:34:09;;;;;;;10.27;1.75;;;;;;;25.44;61.50;94126.13;5057196;28;20017;-85
2022/09/08 05:36:35;;;;;;;7.82;1.38;;;;;;;25.64;61.60;94118.69;5058764;28;20079;-85
2022/09/08 05:39:02;;;;;;;14.73;2.05;;;;;;;25.76;62.52;94124.91;5057578;28;20024;-86
2022/09/08 05:41:29;;;;;;;5.93;1.77;;;;;;;25.25;62.77;94149.31;5057477;28;20021;-86
2022/09/08 05:43:56;;;;;;;8.25;1.90;;;;;;;24.78;65.39;94139.97;5056965;28;20029;-86
2022/09/08 05:46:25;;;;;;;8.63;1.40;;;;;;;25.02;64.31;94170.13;5057468;28;20029;-86
2022/09/08 05:48:51;;;;;;;6.43;1.65;;;;;;;25.19;63.42;94158.81;5054620;28;20048;-86
2022/09/08 05:51:32;;;;;;;6.38;1.63;;;;;;;25.52;62.84;94164.56;5074217;28;20029;-87
2022/09/08 05:53:59;;;;;;;7.50;1.83;;;;;;;25.98;60.60;94147.31;5057361;28;20020;-87
2022/09/08 05:56:24;;;;;;;10.95;1.50;;;;;;;26.05;60.12;94150.06;5057689;28;20459;-88
2022/09/08 05:59:00;;;;;;;11.93;1.88;;;;;;;26.55;59.18;94146.19;5074422;28;20103;-86
2022/09/08 06:01:31;;;;;;;5.82;1.40;;;;;;;26.90;58.28;94134.09;5057374;28;20420;-87
2022/09/08 06:03:58;;;;;;;17.75;2.00;;;;;;;26.58;58.86;94134.69;5073199;28;20056;-87
2022/09/08 06:06:24;;;;;;;9.63;1.90;;;;;;;25.90;62.35;94122.34;5073758;28;20314;-87
2022/09/08 06:08:52;;;;;;;7.68;1.67;;;;;;;25.61;76.37;94129.38;5058386;28;20079;-87
2022/09/08 06:11:17;;;;;;;6.00;1.73;;;;;;;25.79;68.03;94116.13;5073605;28;20020;-88
2022/09/08 06:13:43;;;;;;;7.70;1.90;;;;;;;25.16;76.03;94102.47;5057907;28;20021;-86
2022/09/08 06:16:13;;;;;;;8.95;2.00;;;;;;;25.96;66.60;94101.28;5056864;28;20079;-87
2022/09/08 06:18:41;;;;;;;12.02;2.00;;;;;;;25.77;79.10;94094.25;5058281;28;20028;-87
2022/09/08 06:21:11;;;;;;;3.88;1.38;;;;;;;25.91;66.28;94074.81;5057064;28;20357;-87
2022/09/08 06:23:37;;;;;;;6.82;1.38;;;;;;;25.48;67.15;94072.53;5056868;28;20067;-88
2022/09/08 06:26:37;;;;;;;4.65;1.67;;;;;;;25.36;66.79;94073.56;5057000;28;20139;-90
2022/09/08 06:29:08;;;;;;;3.72;1.50;;;;;;;26.29;62.62;94070.09;5049158;28;20434;-88
2022/09/08 06:31:38;;;;;;;9.40;1.92;;;;;;;26.45;62.21;94082.44;5057009;28;20131;-89
2022/09/08 06:34:14;;;;;;;6.88;1.52;;;;;;;26.21;63.41;94077.34;5056160;28;20051;-86
2022/09/08 06:36:48;;;;;;;8.57;1.77;;;;;;;26.99;60.43;94068.47;5076118;28;20044;-85
2022/09/08 06:39:36;;;;;;;11.45;1.80;;;;;;;27.20;59.14;94065.06;5076111;28;20074;-87
2022/09/08 06:42:09;;;;;;;5.93;1.60;;;;;;;27.16;58.75;94069.63;5056658;28;20450;-86
2022/09/08 06:44:37;;;;;;;4.68;1.30;;;;;;;27.19;59.23;94068.91;5067420;28;20029;-86
2022/09/08 06:47:02;;;;;;;8.75;2.00;;;;;;;26.91;60.47;94059.63;5056145;28;20028;-86
2022/09/08 06:49:28;;;;;;;12.27;1.83;;;;;;;27.36;62.13;94054.69;5057289;28;20408;-85
2022/09/08 06:52:10;;;;;;;7.53;1.60;;;;;;;27.91;59.69;94057.41;5056121;28;20060;-86
2022/09/08 06:54:48;;;;;;;7.22;1.65;;;;;;;27.56;56.21;94040.88;5055700;28;20021;-85
2022/09/08 06:57:23;;;;;;;10.82;1.92;;;;;;;27.87;63.10;94045.88;5057147;28;20099;-86
2022/09/08 07:00:06;;;;;;;6.00;1.60;;;;;;;28.30;60.65;94040.41;5057177;28;20033;-86
2022/09/08 07:02:54;;;;;;;3.58;1.30;;;;;;;28.57;59.60;94037.25;5056979;28;20341;-85
2022/09/08 07:05:41;;;;;;;7.72;2.20;;;;;;;28.52;57.18;94037.63;5057071;28;20033;-87
2022/09/08 07:08:37;;;;;;;10.85;2.50;;;;;;;28.87;55.04;94038.66;5070796;28;20029;-86
2022/09/08 07:11:18;;;;;;;7.68;1.98;;;;;;;27.82;70.20;94033.56;5076941;28;20110;-85
2022/09/08 07:13:51;;;;;;;12.93;1.70;;;;;;;28.47;64.56;94032.66;5076129;28;20029;-85
2022/09/08 07:16:25;;;;;;;6.90;1.83;;;;;;;29.01;60.94;94029.72;5075718;28;20373;-85
2022/09/08 07:19:06;;;;;;;6.65;1.40;;;;;;;27.34;62.05;94027.41;5076800;28;20040;-84
2022/09/08 07:21:42;;;;;;;8.05;1.98;;;;;;;27.00;70.45;94011.63;5059261;28;20028;-85
2022/09/08 07:24:10;;;;;;;11.93;1.55;;;;;;;26.81;70.67;94010.00;5075487;28;20123;-86
2022/09/08 07:26:47;;;;;;;5.50;1.73;;;;;;;27.91;61.79;94014.31;5075868;28;20036;-86
2022/09/08 07:29:20;;;;;;;5.30;1.30;;;;;;;26.95;60.50;94018.13;5059529;28;20032;-85
2022/09/08 07:31:50;;;;;;;12.15;1.40;;;;;;;28.11;60.27;94013.88;5075893;28;20028;-85
2022/09/08 07:34:20;;;;;;;10.55;1.63;;;;;;;28.07;73.19;94016.59;5075233;28;20119;-85
2022/09/08 07:37:00;;;;;;;8.32;1.40;;;;;;;28.23;64.41;94005.41;5058981;28;20093;-86
2022/09/08 07:39:39;;;;;;;5.13;1.25;;;;;;;27.35;84.61;93996.69;5075855;28;20032;-86
2022/09/08 07:42:12;;;;;;;12.48;1.85;;;;;;;28.31;74.87;94000.78;5075507;28;20025;-85
2022/09/08 07:44:38;;;;;;;8.88;1.63;;;;;;;27.63;69.07;94005.13;5075042;28;20028;-86
2022/09/08 07:47:12;;;;;;;6.50;1.50;;;;;;;28.59;63.05;94007.97;5075660;28;20111;-85
2022/09/08 07:49:52;;;;;;;8.88;1.80;;;;;;;28.18;68.21;94016.59;5076397;28;20123;-86
2022/09/08 07:52:33;;;;;;;6.70;1.63;;;;;;;28.55;66.35;94018.00;5075651;28;20039;-84
2022/09/08 07:55:11;;;;;;;4.97;1.85;;;;;;;29.08;62.60;94010.03;5075573;28;20119;-85
2022/09/08 07:57:55;;;;;;;14.23;2.38;;;;;;;27.95;66.59;94012.38;5076588;28;20024;-85
2022/09/08 08:00:52;;;;;;;9.52;1.80;;;;;;;28.21;77.31;94015.81;5075461;28;20021;-85
2022/09/08 08:03:22;;;;;;;9.38;2.42;;;;;;;28.07;70.96;94025.44;5021878;28;20125;-85
2022/09/08 08:05:51;;;;;;;13.02;2.97;;;;;;;27.80;72.49;94020.50;5058717;28;20437;-86
2022/09/08 08:08:26;;;;;;;9.65;1.95;;;;;;;28.87;66.86;94030.59;5075314;28;20024;-86
2022/09/08 08:11:07;;;;;;;7.20;1.85;;;;;;;28.68;67.45;94039.09;5075206;28;20111;-89
2022/09/08 08:14:22;;;;;;;10.07;1.67;;;;;;;28.94;69.33;94040.56;5058511;28;20031;-85
2022/09/08 08:16:50;;;;;;;8.27;2.00;;;;;;;28.91;64.88;94057.53;5062864;28;20033;-85
2022/09/08 08:19:37;;;;;;;6.93;2.00;;;;;;;28.92;63.75;94050.97;5076213;28;20024;-85
2022/09/08 08:22:07;;;;;;;6.38;1.98;;;;;;;28.28;69.67;94052.72;5058596;28;20029;-85
2022/09/08 08:24:41;;;;;;;10.70;2.10;;;;;;;27.45;92.22;94051.63;5074677;28;20064;-85
2022/09/08 08:27:19;;;;;;;8.88;2.10;;;;;;;28.35;76.43;94053.47;5078916;28;20059;-85
2022/09/08 08:29:57;;;;;;;9.00;1.70;;;;;;;27.98;82.95;94052.00;5079059;28;20028;-85
2022/09/08 08:32:27;;;;;;;12.80;2.15;;;;;;;28.53;71.86;94058.03;5078422;28;20434;-86
2022/09/08 08:34:58;;;;;;;8.98;1.90;;;;;;;29.32;71.14;94054.16;5078616;28;20493;-85
2022/09/08 08:37:27;;;;;;;10.43;2.10;;;;;;;29.70;69.38;94067.06;5078742;28;20131;-86
2022/09/08 08:39:53;;;;;;;6.35;1.80;;;;;;;29.95;64.84;94070.69;5078688;28;20024;-85
2022/09/08 08:42:56;;;;;;;8.38;2.15;;;;;;;30.00;66.16;94076.44;5078735;28;20456;-85
2022/09/08 08:45:32;;;;;;;4.27;1.27;;;;;;;30.14;63.14;94069.38;5079746;28;20020;-85
2022/09/08 08:48:17;;;;;;;12.38;2.17;;;;;;;30.78;57.87;94066.41;5062029;28;20032;-85
2022/09/08 08:51:00;;;;;;;10.70;1.75;;;;;;;30.48;55.20;94068.63;5078703;28;20111;-85
2022/09/08 08:53:48;;;;;;;7.95;1.85;;;;;;;31.50;59.39;94059.22;5079589;28;20021;-86
2022/09/08 08:56:25;;;;;;;11.23;2.25;;;;;;;31.44;57.14;94053.50;5078525;28;20031;-86
2022/09/08 08:59:28;;;;;;;13.18;2.35;;;;;;;31.73;58.44;94056.53;5079573;28;20336;-86
2022/09/08 09:02:17;;;;;;;14.25;2.05;;;;;;;29.77;55.23;94066.22;5078343;28;20100;-85
2022/09/08 09:05:06;;;;;;;7.05;1.48;;;;;;;30.32;61.57;94064.56;5078085;28;20139;-86
2022/09/08 09:08:24;;;;;;;6.07;1.88;;;;;;;30.76;58.28;94064.09;5061647;28;20036;-86
2022/09/08 09:11:00;;;;;;;5.35;1.55;;;;;;;30.54;59.80;94074.38;5054032;28;20041;-85
2022/09/08 09:13:47;;;;;;;10.88;1.90;;;;;;;31.11;56.37;94077.56;5077903;28;20028;-86
2022/09/08 09:16:31;;;;;;;6.05;1.50;;;;;;;31.12;58.57;94089.91;5079207;28;20032;-85
2022/09/08 09:19:02;;;;;;;8.48;1.70;;;;;;;31.24;55.95;94088.59;5079419;28;20037;-86
2022/09/08 09:21:52;;;;;;;5.05;1.23;;;;;;;31.63;57.54;94094.59;5078157;28;20032;-85
2022/09/08 09:24:44;;;;;;;7.57;1.60;;;;;;;31.82;55.67;94090.47;5078951;28;20033;-86
2022/09/08 09:27:17;;;;;;;7.60;1.63;;;;;;;32.18;56.49;94087.16;5061370;28;20433;-85
2022/09/08 09:29:42;;;;;;;9.05;1.83;;;;;;;32.25;56.86;94099.81;5077821;28;20429;-86
2022/09/08 09:32:40;;;;;;;10.68;1.67;;;;;;;32.12;52.73;94094.22;5078922;28;20024;-85
2022/09/08 09:35:21;;;;;;;5.15;1.20;;;;;;;32.69;51.15;94100.56;5045272;28;20052;-85
2022/09/08 09:38:10;;;;;;;11.90;1.35;;;;;;;32.39;49.23;94098.81;5078784;28;20035;-85
2022/09/08 09:40:38;;;;;;;4.90;1.38;;;;;;;31.77;52.89;94099.03;5078811;28;20028;-85
2022/09/08 09:43:28;;;;;;;12.40;1.58;;;;;;;31.53;54.50;94112.53;5078485;28;20040;-85
2022/09/08 09:46:18;;;;;;;10.57;1.33;;;;;;;31.02;56.20;94126.75;5078644;28;20422;-86
2022/09/08 09:48:52;;;;;;;11.18;1.48;;;;;;;30.67;52.52;94120.56;5078589;28;20555;-84
2022/09/08 09:51:43;;;;;;;5.50;1.30;;;;;;;31.29;54.97;94128.75;5076385;28;20032;-86
2022/09/08 09:54:35;;;;;;;9.80;1.40;;;;;;;31.11;55.79;94131.66;5078337;28;20032;-85
2022/09/08 09:57:03;;;;;;;11.18;1.48;;;;;;;31.76;48.77;94128.06;5078510;28;20060;-85
2022/09/08 09:59:49;;;;;;;9.45;1.35;;;;;;;29.54;54.88;94112.66;5078371;28;20089;-87
2022/09/08 10:02:53;;;;;;;5.07;1.20;;;;;;;30.37;55.78;94122.03;5077377;28;20025;-87
2022/09/08 10:05:24;;;;;;;8.30;1.52;;;;;;;30.04;52.92;94128.50;5054658;28;20051;-86
2022/09/08 10:08:11;;;;;;;11.70;1.63;;;;;;;30.59;55.42;94126.03;5060631;28;20034;-86
2022/09/08 10:10:37;;;;;;;8.43;1.38;;;;;;;30.93;52.04;94131.88;5076815;28;20039;-87
2022/09/08 10:13:28;;;;;;;13.48;1.40;;;;;;;30.25;51.37;94120.59;5077981;28;20361;-86
2022/09/08 10:16:15;;;;;;;8.02;1.90;;;;;;;28.95;51.61;94114.09;5077101;28;20349;-87
2022/09/08 10:19:05;;;;;;;13.25;2.53;;;;;;;29.13;53.49;94122.91;5077784;28;20457;-87
2022/09/08 10:22:02;;;;;;;7.32;1.52;;;;;;;29.48;52.18;94123.88;5074069;28;20444;-87
2022/09/08 10:24:33;;;;;;;10.00;1.75;;;;;;;29.31;53.40;94119.34;5076786;28;20135;-86
2022/09/08 10:27:36;;;;;;;7.25;2.00;;;;;;;28.73;53.72;94114.19;5077876;28;20064;-86
2022/09/08 10:30:28;;;;;;;5.70;1.52;;;;;;;30.59;51.20;94123.34;5076619;28;20052;-86
2022/09/08 10:33:20;;;;;;;12.43;2.00;;;;;;;30.40;53.76;94119.28;5076420;28;20119;-87
2022/09/08 10:35:46;;;;;;;14.93;1.98;;;;;;;30.60;51.99;94126.81;5077850;28;20403;-86
2022/09/08 10:38:30;;;;;;;9.90;1.65;;;;;;;29.79;52.76;94125.19;5076391;28;20032;-86
2022/09/08 10:41:01;;;;;;;8.43;1.42;;;;;;;30.13;53.31;94127.28;5076299;28;20025;-85
2022/09/08 10:43:35;;;;;;;13.13;1.63;;;;;;;29.45;49.85;94118.50;5076099;28;20032;-86
2022/09/08 10:46:20;;;;;;;4.38;1.13;;;;;;;29.13;52.23;94122.13;5077442;28;20028;-86
2022/09/08 10:48:54;;;;;;;7.50;1.17;;;;;;;29.92;49.87;94123.56;5076636;28;20035;-85
2022/09/08 10:51:22;;;;;;;17.65;1.90;;;;;;;30.48;49.31;94117.28;5077218;28;20330;-86
2022/09/08 10:54:07;;;;;;;10.88;1.60;;;;;;;29.87;49.05;94102.41;5077404;28;20028;-86
2022/09/08 10:56:32;;;;;;;14.75;2.28;;;;;;;29.61;53.25;94112.63;5077144;28;20441;-85
2022/09/08 10:59:03;;;;;;;4.75;1.50;;;;;;;30.62;49.54;94119.03;5077168;28;20033;-86
2022/09/08 11:01:50;;;;;;;10.00;1.52;;;;;;;30.18;48.66;94116.03;5077447;28;20090;-86
2022/09/08 11:04:42;;;;;;;6.07;1.33;;;;;;;30.68;50.36;94116.69;5076870;28;20037;-85
2022/09/08 11:07:44;;;;;;;13.05;1.65;;;;;;;30.59;50.64;94117.16;5077091;28;20119;-85
2022/09/08 11:10:44;;;;;;;6.30;1.10;;;;;;;30.01;50.83;94115.78;5077000;28;20028;-85
2022/09/08 11:13:40;;;;;;;11.70;1.75;;;;;;;30.80;49.06;94116.19;5075907;28;20024;-87
2022/09/08 11:16:27;;;;;;;14.15;1.65;;;;;;;30.17;52.28;94117.22;5077210;28;20040;-86
2022/09/08 11:19:26;;;;;;;7.25;1.58;;;;;;;31.04;51.16;94119.75;5076831;28;20444;-85
2022/09/08 11:22:33;;;;;;;7.05;1.48;;;;;;;30.62;52.15;94105.53;5075773;28;20109;-85
2022/09/08 11:25:36;;;;;;;8.32;1.30;;;;;;;30.21;52.11;94120.63;5076777;28;20403;-85
2022/09/08 11:28:20;;;;;;;7.85;1.50;;;;;;;29.73;52.42;94111.34;5076843;28;20020;-85
2022/09/08 11:30:52;;;;;;;;;;;;;;;29.87;54.28;94113.19;5077108;28;20498;-87
2022/09/08 11:33:54;;;;;;;6.38;1.55;;;;;;;30.35;51.11;94108.94;5075718;28;19909;-85
2022/09/08 11:36:44;;;;;;;11.98;1.55;;;;;;;31.50;50.51;94116.06;5045805;28;20090;-86
2022/09/08 11:39:19;;;;;;;6.50;1.50;;;;;;;30.93;57.19;94107.53;5076724;28;20032;-85
2022/09/08 11:41:50;;;;;;;14.18;1.98;;;;;;;31.40;54.55;94107.69;5076680;28;20029;-85
2022/09/08 11:44:18;;;;;;;7.72;1.70;;;;;;;31.35;52.72;94110.88;5076599;28;20433;-86
2022/09/08 11:46:50;;;;;;;8.25;1.98;;;;;;;31.76;51.73;94102.94;5076611;28;20082;-86
2022/09/08 11:49:44;;;;;;;9.20;1.50;;;;;;;31.57;52.98;94107.88;5076572;28;20107;-86
2022/09/08 11:52:12;;;;;;;6.75;1.33;;;;;;;31.75;49.05;94102.16;5076543;28;20035;-88
2022/09/08 11:55:02;;;;;;;7.50;1.65;;;;;;;31.62;50.52;94096.56;5075367;28;20021;-86
2022/09/08 11:57:43;;;;;;;11.80;1.40;;;;;;;31.64;49.04;94096.16;5075403;28;20028;-86
2022/09/08 12:00:18;;;;;;;10.38;1.50;;;;;;;30.26;55.99;94101.28;5078264;28;20026;-87
2022/09/08 12:03:17;;;;;;;9.93;1.48;;;;;;;30.56;51.70;94099.06;5080705;28;20032;-86
2022/09/08 12:06:19;;;;;;;6.38;1.35;;;;;;;30.49;49.33;94102.59;5079722;28;20119;-86
2022/09/08 12:09:06;;;;;;;12.60;1.70;;;;;;;30.96;49.59;94096.69;5060305;28;20028;-87
2022/09/08 12:12:10;;;;;;;7.45;1.25;;;;;;;30.92;49.87;94095.19;5060585;28;20528;-85
2022/09/08 12:14:48;;;;;;;7.28;1.63;;;;;;;30.29;51.51;94097.00;5059183;28;20029;-85
2022/09/08 12:17:25;;;;;;;7.07;1.27;;;;;;;30.70;49.67;94092.72;5059262;28;20307;-86
2022/09/08 12:20:15;;;;;;;9.43;1.98;;;;;;;31.70;52.17;94087.13;5059122;28;20074;-87
2022/09/08 12:23:03;;;;;;;12.38;2.00;;;;;;;31.70;51.78;94089.09;5059018;28;20032;-86
2022/09/08 12:25:35;;;;;;;9.27;1.42;;;;;;;31.84;51.68;94097.00;5058977;28;20025;-87
2022/09/08 12:28:46;;;;;;;12.63;1.83;;;;;;;31.12;52.01;94096.06;5059037;28;20025;-87
2022/09/08 12:31:19;;;;;;;8.38;1.45;;;;;;;31.92;48.69;94089.53;5060384;28;20036;-86
2022/09/08 12:34:04;;;;;;;10.25;1.90;;;;;;;32.26;48.19;94102.09;5058919;28;20032;-86
2022/09/08 12:36:53;;;;;;;11.07;1.60;;;;;;;32.44;49.76;94099.09;5042249;28;20025;-85
2022/09/08 12:39:24;;;;;;;14.60;1.73;;;;;;;33.05;47.27;94112.66;5042817;28;20024;-86
2022/09/08 12:42:06;;;;;;;8.52;1.58;;;;;;;33.44;46.56;94104.09;5060165;28;20039;-87
2022/09/08 12:44:55;;;;;;;17.77;1.80;;;;;;;34.17;43.00;94106.69;5058844;28;20036;-86
2022/09/08 12:47:27;;;;;;;9.25;1.50;;;;;;;34.56;45.40;94098.69;5060023;28;20111;-86
2022/09/08 12:50:22;;;;;;;8.73;1.40;;;;;;;33.88;46.52;94104.66;5059982;28;20037;-87
2022/09/08 12:53:14;;;;;;;7.63;1.40;;;;;;;31.81;49.14;94091.66;5066820;28;20041;-88
2022/09/08 12:55:55;;;;;;;5.30;1.50;;;;;;;31.16;49.66;94096.03;5059859;28;20434;-92
2022/09/08 12:58:35;;;;;;;5.68;1.20;;;;;;;30.70;50.39;94104.31;5042488;28;20025;-92
2022/09/08 13:01:51;;;;;;;9.93;1.20;;;;;;;30.64;50.11;94097.84;5059511;28;20021;-89
2022/09/08 13:04:23;;;;;;;9.85;1.38;;;;;;;32.36;50.07;94089.59;4999528;28;20038;-91
2022/09/08 13:07:02;;;;;;;11.95;1.77;;;;;;;31.97;50.36;94091.00;5053292;28;20044;-90
2022/09/08 13:09:32;;;;;;;6.10;1.25;;;;;;;33.10;46.62;94097.84;5059404;28;20082;-91
2022/09/08 13:12:30;;;;;;;9.45;1.35;;;;;;;33.18;45.78;94093.78;5057423;28;20027;-90
2022/09/08 13:15:10;;;;;;;6.68;1.30;;;;;;;33.36;48.45;94095.34;5059338;28;20032;-91
2022/09/08 13:17:39;;;;;;;7.88;1.45;;;;;;;33.69;45.81;94089.97;5041327;28;20135;-87
2022/09/08 13:20:29;;;;;;;5.97;1.45;;;;;;;34.02;43.59;94094.66;5066633;28;20032;-86
2022/09/08 13:23:15;;;;;;;9.20;1.38;;;;;;;33.56;44.33;94087.16;5077742;28;20036;-86
2022/09/08 13:25:53;;;;;;;7.78;1.38;;;;;;;32.73;45.53;94086.94;5077945;28;20051;-88
2022/09/08 13:28:45;;;;;;;7.00;1.73;;;;;;;33.33;45.52;94096.97;5079032;28;20038;-86
2022/09/08 13:31:25;;;;;;;6.03;1.13;;;;;;;33.08;43.80;94087.41;5078799;28;20106;-88
2022/09/08 13:34:17;;;;;;;9.73;1.45;;;;;;;31.17;48.13;94092.91;5070823;28;20036;-89
2022/09/08 13:36:46;;;;;;;6.38;1.48;;;;;;;30.59;47.27;94099.03;5058721;28;20450;-87
2022/09/08 13:39:40;;;;;;;8.50;1.40;;;;;;;30.78;49.56;94098.84;5058527;28;20025;-88
2022/09/08 13:42:27;;;;;;;8.60;1.80;;;;;;;31.49;45.84;94090.19;5057038;28;20052;-86
2022/09/08 13:45:14;;;;;;;8.95;1.65;;;;;;;30.85;45.85;94086.00;5058475;28;20032;-87
2022/09/08 13:48:09;;;;;;;11.05;1.30;;;;;;;30.35;51.68;94081.13;5057613;28;20391;-87
2022/09/08 13:50:50;;;;;;;8.93;1.60;;;;;;;30.72;55.02;94087.72;5057436;28;20042;-87
2022/09/08 13:53:32;;;;;;;14.57;1.67;;;;;;;30.82;58.18;94081.38;5040735;28;20021;-87
2022/09/08 13:56:06;;;;;;;12.02;1.65;;;;;;;30.12;56.61;94091.38;5057445;28;20036;-89
2022/09/08 13:58:39;;;;;;;7.80;1.33;;;;;;;31.15;50.20;94084.44;5057667;28;20029;-86
2022/09/08 14:01:10;;;;;;;7.83;1.63;;;;;;;30.87;51.98;94086.34;5058262;28;20024;-87